Date,TemperatureHighF,TemperatureAvgF,TemperatureLowF,DewpointHighF,DewpointAvgF,DewpointLowF,HumidityHigh,HumidityAvg,HumidityLow,PressureMaxIn,PressureMinIn,WindSpeedMaxMPH,WindSpeedAvgMPH,GustSpeedMaxMPH,PrecipitationSumIn
2013-5-1,83,69,63,66,64,62,97,84,51,0.00,40.00,7,2,12,1.06
2013-5-2,70,66,58,65,64,53,97,92,82,0.00,40.00,9,4,19,0.86
2013-5-3,59,50,43,53,44,38,95,80,45,0.00,40.00,11,7,22,0.08
2013-5-4,76,58,37,45,38,33,97,57,23,0.00,40.00,9,4,20,0.00
2013-5-5,65,55,42,47,40,37,93,61,37,0.00,40.00,11,4,19,0.00
2013-5-6,78,60,43,58,48,42,96,71,37,0.00,40.00,9,3,15,0.00
2013-5-7,83,66,54,59,54,51,97,72,34,0.00,40.00,6,2,11,0.00
2013-5-8,84,69,53,63,58,52,97,71,42,0.00,40.00,9,4,15,0.00
2013-5-9,78,70,60,69,65,58,97,86,67,0.00,40.00,7,4,13,0.47
2013-5-10,75,68,65,69,64,-100,97,87,69,0.00,40.00,12,4,20,3.75
2013-5-11,81,70,62,66,63,61,98,80,52,0.00,40.00,5,2,11,0.02
2013-5-12,75,64,54,61,55,50,97,75,45,0.00,40.00,8,3,16,0.01
2013-5-13,81,64,47,57,48,41,97,64,26,0.00,40.00,6,2,12,0.00
2013-5-14,85,71,57,61,53,47,93,59,28,0.00,40.00,9,5,16,0.00
2013-5-15,81,69,57,68,61,56,96,78,47,0.00,40.00,11,4,17,0.00
2013-5-16,81,69,65,68,44,-100,96,78,59,0.00,40.00,12,6,20,0.00
2013-5-17,86,75,65,71,64,-100,96,79,59,0.00,40.00,11,6,20,0.00
2013-5-18,88,79,73,71,70,67,93,75,55,0.00,40.00,10,7,19,0.00
2013-5-19,88,79,73,72,70,67,91,74,53,0.00,40.00,13,8,24,0.00
2013-5-20,89,81,76,72,71,69,86,73,54,0.00,40.00,12,8,20,0.00
2013-5-21,88,80,70,73,71,65,93,75,53,0.00,40.00,13,8,22,1.36
2013-5-22,84,73,66,73,68,65,97,87,65,0.00,40.00,7,3,13,2.60
2013-5-23,89,76,68,74,70,64,98,85,55,0.00,40.00,8,2,16,0.08
2013-5-24,89,76,64,71,67,63,98,78,49,0.00,40.00,6,3,11,0.09
2013-5-25,87,77,69,71,67,60,95,73,53,0.00,40.00,7,3,11,0.00
2013-5-26,83,76,70,71,68,64,97,78,52,0.00,40.00,5,2,11,0.00
2013-5-27,87,77,67,71,66,62,97,73,43,0.00,40.00,11,4,18,0.00
2013-5-28,87,78,71,70,68,65,95,73,49,0.00,40.00,10,6,18,0.00
2013-5-29,87,78,69,72,69,66,94,76,50,0.00,40.00,9,4,16,0.00
2013-5-30,88,80,74,75,72,70,93,78,58,0.00,40.00,13,6,21,0.04
2013-5-31,88,80,75,75,73,71,94,79,59,0.00,40.00,13,7,24,0.01